Terminal Aerodrome Forecast
Issued by NWS

Home | Current Version | Previous Version | Text Only | Print | Product List | Glossary On
Versions: 1 2 3 4 5 6 7 8 9 10 11 12 13 14 15 16 17 18 19 20 21 22 23 24 25 26 27 28 29 30 31 32 33 34 35 36 37 38 39 40 41 42 43 44 45 46 47 48 49 50
000
FTUS43 KUNR 210803 AAB
TAFGCC
TAF AMD
KGCC 210803Z 2108/2206 29007KT P6SM BKN100
     FM211500 33015G25KT 3SM -SN OVC020
     FM211900 35022G32KT 1SM -SN OVC004=

USA.gov is the U.S. government's official web portal to all federal, state and local government web resources and services.